Wednesday, October 17, 2018, 3:29 AM EDT
Back to Local

KPTW, Pottstown Limerick Airport

Location: Royersford, PA, United States Lat: 40.233
Local Time: 3:29 AM EDT ( 7:29 GMT) Lon: -75.55
Time Zone: US/Eastern Elev: 291 ft

Show me the last for .
Show Decoded

2018-10-17 02:54 METAR KPTW 170654Z AUTO 00000KT 9SM CLR 05/05 A3006 RMK AO2 SLP177 T00500050 =
2018-10-17 01:54 METAR KPTW 170554Z AUTO 00000KT 9SM CLR 04/04 A3008 RMK AO2 SLP185 T00440044
                 10094 20044 56006 =
2018-10-16 23:54 METAR KPTW 170354Z AUTO 00000KT 10SM CLR 07/04 A3009 RMK AO2 SLP187 T00670044 =
2018-10-16 22:54 METAR KPTW 170254Z AUTO 21004KT 10SM CLR 08/04 A3010 RMK AO2 SLP190 T00780039
                 55003 =
2018-10-16 21:54 METAR KPTW 170154Z AUTO 00000KT 10SM CLR 07/03 A3010 RMK AO2 SLP191 T00720033 =
2018-10-16 20:54 METAR KPTW 170054Z AUTO 22003KT 10SM CLR 09/03 A3010 RMK AO2 SLP192 T00890033 =
2018-10-16 19:54 METAR KPTW 162354Z AUTO 23003KT 10SM CLR 09/02 A3011 RMK AO2 SLP193 T00890022
                 10117 20083 55002 =
2018-10-16 18:54 METAR KPTW 162254Z AUTO 22003KT 10SM CLR 09/02 A3010 RMK AO2 SLP192 T00940022 =
2018-10-16 17:54 METAR KPTW 162154Z AUTO 23004KT 10SM CLR 10/02 A3011 RMK AO2 SLP195 T01000017 =
2018-10-16 16:54 METAR KPTW 162054Z AUTO 25005KT 10SM CLR 11/01 A3012 RMK AO2 SLP196 T01110011
                 55013 =
2018-10-16 15:54 METAR KPTW 161954Z AUTO VRB04KT 10SM CLR 11/01 A3011 RMK AO2 SLP195 T01110006 =
2018-10-16 14:54 METAR KPTW 161854Z AUTO 24006KT 10SM CLR 11/01 A3013 RMK AO2 SLP200 T01110006 =
2018-10-16 13:54 METAR KPTW 161754Z AUTO VRB06KT 10SM CLR 11/01 A3015 RMK AO2 SLP209 T01110011
                 10111 20078 58020 =
2018-10-16 12:54 METAR KPTW 161654Z AUTO VRB04KT 10SM CLR 11/00 A3018 RMK AO2 SLP219 T01060000 =
2018-10-16 11:54 METAR KPTW 161554Z AUTO 30008G15KT 260V340 10SM CLR 10/00 A3019 RMK AO2 SLP222
                 T01000000 =
2018-10-16 10:54 METAR KPTW 161454Z AUTO 34008KT 10SM CLR 09/01 A3021 RMK AO2 SLP229 T00940011
                 50007 =
2018-10-16 09:54 METAR KPTW 161354Z AUTO 31011KT 10SM CLR 08/00 A3023 RMK AO2 SLP232 T00830000 =
2018-10-16 08:54 METAR KPTW 161254Z AUTO 33008KT 10SM CLR 08/02 A3022 RMK AO2 SLP229 T00830017 =
2018-10-16 07:54 METAR KPTW 161154Z AUTO VRB04KT 10SM CLR 08/01 A3019 RMK AO2 SLP221 70005
                 T00780011 10133 20078 51023 =
2018-10-16 06:54 METAR KPTW 161054Z AUTO 33009KT 10SM CLR 08/02 A3017 RMK AO2 SLP212 T00830017 =
2018-10-16 05:54 METAR KPTW 160954Z AUTO 31009KT 10SM CLR 10/02 A3015 RMK AO2 SLP208 T01000017 =
2018-10-16 04:54 METAR KPTW 160854Z AUTO 31008KT 10SM CLR 11/04 A3012 RMK AO2 SLP198 T01060044
                 53018 =
2018-10-16 03:54 METAR KPTW 160754Z AUTO 30008KT 10SM CLR 11/04 A3010 RMK AO2 SLP189 T01110044 =

Support USWX by starting your Amazon purchase here.